Time;durP1;ratioP1;P1;durP2;ratioP2;P2;SDS_P1;SDS_P2;PMS_P1;PMS_P2;Temp;Humidity;BMP_temperature;BMP_pressure;BME280_temperature;BME280_humidity;BME280_pressure;Samples;Min_cycle;Max_cycle;Signal;HPM_P1;HPM_P2
2022/07/11 03:03:03;;;;;;;0.70;0.60;;;18.20;68.90;;;;;;4956887;23;20490;-77
2022/07/11 03:05:29;;;;;;;0.70;0.50;;;18.20;68.80;;;;;;4956471;29;20457;-77
2022/07/11 03:07:56;;;;;;;0.70;0.70;;;18.30;68.90;;;;;;4956402;29;20454;-77
2022/07/11 03:10:23;;;;;;;0.70;0.60;;;18.20;69.20;;;;;;4955982;29;21087;-76
2022/07/11 03:12:50;;;;;;;0.70;0.60;;;18.20;69.20;;;;;;4956413;28;20470;-77
2022/07/11 03:15:17;;;;;;;0.80;0.60;;;18.20;69.20;;;;;;4956259;29;20501;-77
2022/07/11 03:17:44;;;;;;;0.70;0.57;;;18.30;69.20;;;;;;4957397;28;20451;-77
2022/07/11 03:20:12;;;;;;;0.70;0.60;;;18.30;69.30;;;;;;4956193;29;20793;-77
2022/07/11 03:22:39;;;;;;;0.80;0.70;;;18.30;69.50;;;;;;4955771;29;21045;-77
2022/07/11 03:25:06;;;;;;;0.70;0.63;;;18.30;69.60;;;;;;4955785;29;20972;-77
2022/07/11 03:27:33;;;;;;;0.70;0.60;;;18.30;69.80;;;;;;4956275;29;20455;-77
2022/07/11 03:30:00;;;;;;;0.70;0.57;;;18.30;69.90;;;;;;4956060;29;20459;-77
2022/07/11 03:32:27;;;;;;;0.70;0.60;;;18.30;69.90;;;;;;4955729;29;20998;-77
2022/07/11 03:37:47;;;;;;;0.70;0.60;;;18.30;70.00;;;;;;4921425;28;20894;-77
2022/07/11 03:40:14;;;;;;;0.70;0.60;;;18.30;70.20;;;;;;4956056;29;20954;-77
2022/07/11 03:42:40;;;;;;;0.80;0.60;;;18.30;70.30;;;;;;4955745;29;20506;-76
2022/07/11 03:45:08;;;;;;;0.70;0.60;;;18.30;70.30;;;;;;4955779;29;20502;-76
2022/07/11 03:47:36;;;;;;;0.70;0.60;;;18.30;70.30;;;;;;4955789;28;20541;-76
2022/07/11 03:50:03;;;;;;;0.70;0.60;;;18.30;70.40;;;;;;4955427;29;20458;-77
2022/07/11 03:52:30;;;;;;;0.70;0.50;;;18.30;70.40;;;;;;4955274;29;20902;-77
2022/07/11 03:54:58;;;;;;;0.70;0.60;;;18.30;70.40;;;;;;4955337;29;20966;-76
2022/07/11 03:57:24;;;;;;;0.70;0.60;;;18.30;70.40;;;;;;4955524;29;20482;-77
2022/07/11 03:59:51;;;;;;;0.70;0.60;;;18.30;70.50;;;;;;4955557;29;20451;-77
2022/07/11 04:02:18;;;;;;;0.70;0.60;;;18.30;70.60;;;;;;4955300;29;20518;-75
2022/07/11 04:04:44;;;;;;;0.70;0.60;;;18.30;70.80;;;;;;4955514;29;20447;-77
2022/07/11 04:07:11;;;;;;;0.70;0.60;;;18.20;71.10;;;;;;4955507;29;20446;-76
2022/07/11 04:09:38;;;;;;;0.70;0.70;;;18.20;71.30;;;;;;4955430;29;20458;-76
2022/07/11 04:12:07;;;;;;;0.70;0.60;;;18.20;71.30;;;;;;4955350;29;20475;-76
2022/07/11 04:14:33;;;;;;;0.87;0.60;;;18.30;71.40;;;;;;4955601;29;20458;-77
2022/07/11 04:17:00;;;;;;;0.70;0.60;;;18.30;71.20;;;;;;4955264;29;20482;-76
2022/07/11 04:19:27;;;;;;;0.70;0.60;;;18.10;71.40;;;;;;4955303;29;20455;-77
2022/07/11 04:21:53;;;;;;;0.70;0.60;;;18.10;71.90;;;;;;4955223;29;20541;-76
2022/07/11 04:24:20;;;;;;;1.37;0.70;;;18.10;71.80;;;;;;4955229;29;20450;-76
2022/07/11 04:26:47;;;;;;;0.70;0.70;;;18.10;71.80;;;;;;4954937;29;20969;-77
2022/07/11 04:29:15;;;;;;;0.70;0.60;;;18.20;71.70;;;;;;4955246;28;20456;-77
2022/07/11 04:31:41;;;;;;;0.70;0.57;;;18.20;71.80;;;;;;4959172;29;20471;-76
2022/07/11 04:34:08;;;;;;;0.70;0.57;;;18.30;71.90;;;;;;4959210;29;20450;-77
2022/07/11 04:36:35;;;;;;;0.70;0.67;;;18.30;71.90;;;;;;4959076;29;20482;-77
2022/07/11 04:39:01;;;;;;;0.80;0.73;;;18.40;71.90;;;;;;4959113;29;20459;-76
2022/07/11 04:41:28;;;;;;;0.70;0.60;;;18.40;71.60;;;;;;4958961;29;20463;-76
2022/07/11 04:43:54;;;;;;;0.70;0.60;;;18.50;71.70;;;;;;4958982;29;20513;-77
2022/07/11 04:46:22;;;;;;;0.70;0.63;;;18.60;71.90;;;;;;4958998;29;20505;-77
2022/07/11 04:48:49;;;;;;;0.70;0.60;;;18.70;71.80;;;;;;4958928;29;20447;-76
2022/07/11 04:51:17;;;;;;;0.80;0.60;;;18.70;72.00;;;;;;4958832;29;20492;-76
2022/07/11 04:53:43;;;;;;;0.70;0.70;;;18.80;72.20;;;;;;4958874;29;20477;-76
2022/07/11 04:56:10;;;;;;;0.70;0.70;;;18.80;72.20;;;;;;4958839;29;20849;-77
2022/07/11 04:58:37;;;;;;;1.33;0.80;;;18.90;72.20;;;;;;4958808;29;20459;-77
2022/07/11 05:01:04;;;;;;;0.70;0.70;;;19.00;72.20;;;;;;4958731;29;20490;-76
2022/07/11 05:03:33;;;;;;;0.70;0.60;;;19.10;72.50;;;;;;4958818;29;20446;-77
2022/07/11 05:05:59;;;;;;;0.70;0.60;;;19.10;72.20;;;;;;4958746;28;20538;-77
2022/07/11 05:08:26;;;;;;;0.80;0.70;;;19.10;72.00;;;;;;4958568;29;20589;-76
2022/07/11 05:10:53;;;;;;;0.70;0.67;;;19.10;72.00;;;;;;4958492;29;20877;-77
2022/07/11 05:13:19;;;;;;;0.70;0.60;;;19.20;72.10;;;;;;4958498;29;20459;-77
2022/07/11 05:15:46;;;;;;;1.10;1.00;;;19.20;71.90;;;;;;4958458;29;20451;-77
2022/07/11 05:18:13;;;;;;;0.70;0.60;;;19.30;71.90;;;;;;4958354;29;20553;-77
2022/07/11 05:20:41;;;;;;;0.70;0.70;;;19.30;72.00;;;;;;4958342;29;20528;-77
2022/07/11 05:23:07;;;;;;;0.70;0.60;;;19.40;71.70;;;;;;4958332;29;20451;-77
2022/07/11 05:25:34;;;;;;;0.80;0.73;;;19.40;71.40;;;;;;4958328;29;20454;-77
2022/07/11 05:28:01;;;;;;;0.70;0.70;;;19.50;71.50;;;;;;4958294;29;20505;-77
2022/07/11 05:30:27;;;;;;;0.70;0.70;;;19.40;71.80;;;;;;4958169;29;20506;-76
2022/07/11 05:32:54;;;;;;;0.77;0.77;;;19.50;71.70;;;;;;4958167;29;20442;-77
2022/07/11 05:35:20;;;;;;;0.80;0.80;;;19.50;71.60;;;;;;4958135;29;20501;-77
2022/07/11 05:37:48;;;;;;;0.73;0.67;;;19.60;71.50;;;;;;4958015;29;20479;-77
2022/07/11 05:40:15;;;;;;;0.90;0.70;;;19.70;71.30;;;;;;4957756;28;20453;-77
2022/07/11 05:42:42;;;;;;;0.70;0.70;;;19.70;72.20;;;;;;4957986;29;20538;-76
2022/07/11 05:45:10;;;;;;;1.00;0.80;;;19.80;71.50;;;;;;4957939;29;20462;-76
2022/07/11 05:47:36;;;;;;;0.70;0.70;;;19.70;71.40;;;;;;4957893;29;20498;-76
2022/07/11 05:50:03;;;;;;;0.77;0.77;;;19.80;70.90;;;;;;4957851;29;20443;-76
2022/07/11 05:52:30;;;;;;;0.70;0.70;;;19.80;70.90;;;;;;4957847;29;20474;-75
2022/07/11 05:54:58;;;;;;;0.90;0.70;;;19.80;70.40;;;;;;4957496;29;20459;-74
2022/07/11 05:57:25;;;;;;;0.80;0.70;;;19.90;71.00;;;;;;4957421;29;20478;-74
2022/07/11 05:59:52;;;;;;;0.70;0.70;;;20.00;70.20;;;;;;4957472;29;20942;-75
2022/07/11 06:02:19;;;;;;;0.80;0.70;;;19.70;70.60;;;;;;4957281;29;21002;-75
2022/07/11 06:04:45;;;;;;;0.70;0.60;;;19.90;70.40;;;;;;4957641;29;20451;-74
2022/07/11 06:08:40;;;;;;;0.70;0.67;;;20.00;70.50;;;;;;4957587;29;20798;-74
2022/07/11 06:09:59;;;;;;;0.80;0.60;;;20.00;70.70;;;;;;4957049;29;20455;-75
2022/07/11 06:12:26;;;;;;;0.80;0.70;;;20.10;70.80;;;;;;4957369;29;20498;-75
2022/07/11 06:14:53;;;;;;;0.80;0.70;;;20.20;70.00;;;;;;4957389;29;20455;-76
2022/07/11 06:17:19;;;;;;;0.87;0.87;;;20.20;69.80;;;;;;4957257;29;20895;-75
2022/07/11 06:19:46;;;;;;;0.70;0.70;;;19.80;70.40;;;;;;4957080;29;21006;-75
2022/07/11 06:22:14;;;;;;;0.70;0.60;;;19.80;71.00;;;;;;4957195;29;20521;-75
2022/07/11 06:24:40;;;;;;;0.70;0.70;;;19.90;70.80;;;;;;4957295;29;20455;-75
2022/07/11 06:27:08;;;;;;;0.80;0.70;;;19.90;70.00;;;;;;4957202;29;20451;-76
2022/07/11 06:29:35;;;;;;;0.87;0.60;;;19.80;71.00;;;;;;4956797;29;20874;-74
2022/07/11 06:32:02;;;;;;;0.90;0.70;;;19.80;70.90;;;;;;4957035;29;20467;-75
2022/07/11 06:34:29;;;;;;;0.70;0.70;;;19.60;71.40;;;;;;4957100;29;20497;-75
2022/07/11 06:36:55;;;;;;;0.70;0.70;;;19.60;71.50;;;;;;4957051;29;20493;-76
2022/07/11 06:39:22;;;;;;;0.70;0.60;;;19.80;71.40;;;;;;4956902;29;20479;-75
2022/07/11 06:41:49;;;;;;;0.70;0.60;;;20.00;70.30;;;;;;4956862;29;20482;-75
2022/07/11 06:44:17;;;;;;;0.70;0.70;;;20.20;70.10;;;;;;4957683;29;20640;-74
2022/07/11 06:46:44;;;;;;;0.80;0.80;;;20.40;70.10;;;;;;4956936;29;20451;-75
2022/07/11 06:49:12;;;;;;;0.70;0.60;;;20.60;68.50;;;;;;4956781;29;20455;-75
2022/07/11 06:51:39;;;;;;;0.70;0.60;;;20.70;68.00;;;;;;4956828;28;20501;-75
2022/07/11 06:54:06;;;;;;;0.80;0.70;;;20.80;68.40;;;;;;4956228;29;20451;-75
2022/07/11 06:56:33;;;;;;;0.70;0.60;;;20.90;67.90;;;;;;4956640;29;20451;-75
2022/07/11 06:58:59;;;;;;;0.70;0.60;;;21.00;68.20;;;;;;4956642;29;20494;-75
2022/07/11 07:01:27;;;;;;;0.70;0.60;;;21.00;68.00;;;;;;4956337;29;20517;-76
2022/07/11 07:03:54;;;;;;;0.70;0.60;;;20.90;68.20;;;;;;4956467;29;20451;-75
2022/07/11 07:06:21;;;;;;;0.70;0.60;;;20.90;68.70;;;;;;4956397;29;20451;-76
2022/07/11 07:08:47;;;;;;;0.70;0.60;;;21.00;68.50;;;;;;4956356;29;20506;-76
2022/07/11 07:11:14;;;;;;;0.70;0.70;;;21.20;67.70;;;;;;4956314;29;20521;-76
2022/07/11 07:13:41;;;;;;;0.70;0.70;;;21.40;67.20;;;;;;4956351;29;20454;-75
2022/07/11 07:16:07;;;;;;;0.70;0.70;;;21.50;66.80;;;;;;4956406;29;20458;-75
2022/07/11 07:18:37;;;;;;;0.70;0.60;;;21.10;67.40;;;;;;4956326;29;20553;-75
2022/07/11 07:21:03;;;;;;;0.80;0.70;;;20.80;69.00;;;;;;4956023;29;20974;-75
2022/07/11 07:23:30;;;;;;;0.83;0.70;;;20.90;68.10;;;;;;4956145;29;20462;-76
2022/07/11 07:25:57;;;;;;;0.70;0.60;;;21.00;68.30;;;;;;4956194;29;20454;-76
2022/07/11 07:28:24;;;;;;;0.70;0.60;;;21.00;67.50;;;;;;4956055;29;20455;-75
2022/07/11 07:30:50;;;;;;;0.70;0.50;;;21.00;66.70;;;;;;4956121;29;20521;-76
2022/07/11 07:33:17;;;;;;;0.70;0.60;;;21.20;67.60;;;;;;4956013;29;20447;-76
2022/07/11 07:35:45;;;;;;;0.60;0.50;;;21.50;67.40;;;;;;4955737;29;21066;-74
2022/07/11 07:38:12;;;;;;;0.70;0.60;;;21.40;67.00;;;;;;4955852;29;20490;-75
2022/07/11 07:40:39;;;;;;;0.70;0.50;;;21.50;66.50;;;;;;4956672;29;20439;-73
2022/07/11 07:43:06;;;;;;;0.70;0.53;;;21.80;65.60;;;;;;4956547;29;20451;-73
2022/07/11 07:45:33;;;;;;;0.70;0.60;;;21.90;64.50;;;;;;4956097;29;20459;-74
2022/07/11 07:48:00;;;;;;;0.70;0.50;;;21.40;65.00;;;;;;4956175;29;20883;-73
2022/07/11 07:50:27;;;;;;;0.70;0.50;;;21.60;66.50;;;;;;4956819;29;20876;-73
2022/07/11 07:52:55;;;;;;;0.70;0.50;;;21.60;66.30;;;;;;4957936;29;20450;-74
2022/07/11 07:55:21;;;;;;;0.70;0.50;;;22.10;64.70;;;;;;4956489;28;20478;-73
2022/07/11 07:57:48;;;;;;;0.70;0.50;;;22.40;64.30;;;;;;4956513;28;20891;-73
2022/07/11 08:03:05;;;;;;;0.70;0.50;;;22.00;64.80;;;;;;4957058;29;20559;-74
2022/07/11 08:05:31;;;;;;;0.70;0.50;;;22.00;63.10;;;;;;4957231;28;20442;-73
2022/07/11 08:08:00;;;;;;;0.70;0.50;;;21.80;63.30;;;;;;4956777;29;20450;-73
2022/07/11 08:10:27;;;;;;;0.70;0.50;;;21.60;64.10;;;;;;4956780;28;20482;-73
2022/07/11 08:12:53;;;;;;;0.70;0.50;;;22.10;64.20;;;;;;4957265;29;20451;-74
2022/07/11 08:15:20;;;;;;;0.70;0.50;;;22.30;63.10;;;;;;4957793;29;20487;-75
2022/07/11 08:17:47;;;;;;;0.60;0.50;;;22.40;62.00;;;;;;4956521;29;20487;-73
2022/07/11 08:20:13;;;;;;;0.70;0.50;;;22.70;60.20;;;;;;4956840;29;20451;-74
2022/07/11 08:22:40;;;;;;;0.60;0.50;;;22.50;60.50;;;;;;4956344;29;20475;-74
2022/07/11 08:25:08;;;;;;;0.70;0.50;;;22.60;61.70;;;;;;4956077;29;20454;-74
2022/07/11 08:27:37;;;;;;;0.70;0.50;;;22.80;62.70;;;;;;4955986;29;20510;-74
2022/07/11 08:30:05;;;;;;;0.60;0.50;;;22.80;61.60;;;;;;4957558;29;20461;-74
2022/07/11 08:32:32;;;;;;;0.70;0.50;;;23.00;58.20;;;;;;4957670;29;20833;-74
2022/07/11 08:34:58;;;;;;;0.60;0.50;;;23.20;59.10;;;;;;4956484;29;20498;-74
2022/07/11 08:37:25;;;;;;;0.70;0.60;;;23.50;59.00;;;;;;4956389;29;20482;-74
2022/07/11 08:39:52;;;;;;;0.70;0.50;;;23.70;57.50;;;;;;4955815;29;20447;-74
2022/07/11 08:42:21;;;;;;;1.23;0.60;;;23.70;57.00;;;;;;4955416;29;20902;-73
2022/07/11 08:44:48;;;;;;;0.60;0.50;;;23.70;59.00;;;;;;4956050;28;20446;-74
2022/07/11 08:47:15;;;;;;;0.70;0.50;;;23.80;58.80;;;;;;4955483;29;20451;-74
2022/07/11 08:49:44;;;;;;;0.60;0.50;;;24.00;58.30;;;;;;4955566;29;20455;-72
2022/07/11 08:52:13;;;;;;;0.70;0.60;;;24.20;57.40;;;;;;4955583;29;20510;-71
2022/07/11 08:54:40;;;;;;;0.70;0.57;;;24.20;55.30;;;;;;4955721;29;20490;-73
2022/07/11 08:57:07;;;;;;;0.70;0.50;;;24.10;55.50;;;;;;4955505;29;20451;-73
2022/07/11 08:59:37;;;;;;;0.60;0.50;;;23.60;57.00;;;;;;4955345;29;20446;-74
2022/07/11 09:02:06;;;;;;;0.70;0.50;;;23.80;56.30;;;;;;4955100;29;20486;-73
2022/07/11 09:04:34;;;;;;;1.03;0.50;;;24.10;55.30;;;;;;4955609;29;20451;-74
2022/07/11 09:07:01;;;;;;;0.60;0.50;;;24.20;55.10;;;;;;4955519;29;20461;-74
2022/07/11 09:09:28;;;;;;;0.60;0.50;;;24.30;54.60;;;;;;4955518;28;20994;-74
2022/07/11 09:11:57;;;;;;;0.70;0.50;;;24.30;54.60;;;;;;4956153;29;20470;-75
2022/07/11 09:14:25;;;;;;;0.70;0.53;;;24.40;54.60;;;;;;4955721;29;20502;-75
2022/07/11 09:17:00;;;;;;;0.63;0.50;;;24.60;55.20;;;;;;4959682;28;20463;-74
2022/07/11 09:19:28;;;;;;;0.60;0.50;;;24.60;54.10;;;;;;4959369;29;20471;-74
2022/07/11 09:27:45;;;;;;;0.60;0.50;;;23.40;56.00;;;;;;4959011;29;20450;-73
2022/07/11 09:30:22;;;;;;;0.60;0.50;;;23.40;56.50;;;;;;4958930;29;20450;-74
2022/07/11 09:32:58;;;;;;;0.70;0.50;;;23.70;56.40;;;;;;4959249;29;20435;-74
2022/07/11 09:35:27;;;;;;;0.60;0.50;;;23.90;56.40;;;;;;4959337;29;20439;-74
2022/07/11 09:37:54;;;;;;;0.60;0.50;;;24.00;55.80;;;;;;4958941;29;20486;-74
2022/07/11 09:40:22;;;;;;;0.60;0.50;;;24.20;55.40;;;;;;4958260;29;20455;-74
2022/07/11 09:42:51;;;;;;;0.70;0.50;;;24.30;56.10;;;;;;4958301;28;21087;-73
2022/07/11 09:45:18;;;;;;;0.70;0.57;;;24.40;55.70;;;;;;4959844;29;20465;-73
2022/07/11 09:47:46;;;;;;;0.70;0.50;;;24.40;54.80;;;;;;4958260;29;20446;-73
2022/07/11 09:50:18;;;;;;;0.70;0.60;;;24.50;54.90;;;;;;4958243;29;20514;-74
2022/07/11 09:52:59;;;;;;;0.90;0.60;;;24.20;55.30;;;;;;4958481;29;20502;-72
2022/07/11 09:55:26;;;;;;;0.60;0.50;;;24.10;56.30;;;;;;4958957;29;20442;-74
2022/07/11 09:57:54;;;;;;;0.63;0.50;;;24.10;56.00;;;;;;4959976;29;20486;-73
2022/07/11 10:00:20;;;;;;;0.60;0.50;;;24.10;55.40;;;;;;4957975;29;20515;-74
2022/07/11 10:02:49;;;;;;;0.60;0.50;;;24.20;55.20;;;;;;4958658;29;20474;-74
2022/07/11 10:05:16;;;;;;;0.70;0.60;;;24.20;55.60;;;;;;4958043;29;20551;-73
2022/07/11 10:07:43;;;;;;;0.60;0.50;;;24.20;55.60;;;;;;4957702;29;20447;-73
2022/07/11 10:10:11;;;;;;;0.60;0.50;;;24.10;56.10;;;;;;4957236;29;20827;-73
2022/07/11 10:12:38;;;;;;;0.70;0.50;;;24.20;56.40;;;;;;4957691;28;20549;-73
2022/07/11 10:15:09;;;;;;;0.60;0.50;;;24.40;55.90;;;;;;4957752;29;20522;-73
2022/07/11 10:17:45;;;;;;;0.60;0.50;;;24.50;56.00;;;;;;4957305;28;20809;-73
2022/07/11 10:20:21;;;;;;;0.63;0.50;;;24.60;55.40;;;;;;4957674;29;20438;-73
2022/07/11 10:22:54;;;;;;;0.70;0.50;;;24.80;56.20;;;;;;4957609;29;20877;-74
2022/07/11 10:25:26;;;;;;;0.63;0.50;;;24.90;55.30;;;;;;4957694;28;20440;-74
2022/07/11 10:28:04;;;;;;;0.67;0.50;;;24.80;56.00;;;;;;4956281;28;20431;-73
2022/07/11 10:30:48;;;;;;;0.60;0.50;;;24.80;54.60;;;;;;4957342;28;20675;-74
2022/07/11 10:33:15;;;;;;;0.70;0.50;;;24.50;54.70;;;;;;4957499;29;20447;-74
2022/07/11 10:35:45;;;;;;;0.60;0.50;;;24.60;54.90;;;;;;4957426;29;20455;-72
2022/07/11 10:38:12;;;;;;;0.70;0.60;;;24.40;56.40;;;;;;4957202;29;20491;-73
2022/07/11 10:40:50;;;;;;;0.60;0.50;;;24.20;57.50;;;;;;4957044;29;20455;-73
2022/07/11 10:43:36;;;;;;;0.60;0.50;;;24.40;57.20;;;;;;4957233;29;20450;-73
2022/07/11 10:46:04;;;;;;;0.63;0.57;;;24.30;56.10;;;;;;4957286;29;20439;-74
2022/07/11 10:48:34;;;;;;;0.60;0.50;;;24.20;56.70;;;;;;4957088;29;20458;-74
2022/07/11 10:51:20;;;;;;;0.60;0.50;;;24.40;57.40;;;;;;4957174;29;20471;-73
2022/07/11 10:53:50;;;;;;;0.60;0.50;;;24.60;56.10;;;;;;4956853;29;20431;-72
2022/07/11 10:56:51;;;;;;;0.70;0.50;;;24.90;57.20;;;;;;4956693;29;20451;-72
2022/07/11 10:59:19;;;;;;;1.10;0.60;;;25.00;55.30;;;;;;4956638;29;20466;-72
2022/07/11 11:02:10;;;;;;;1.20;0.60;;;25.00;55.80;;;;;;4956282;28;20577;-71
2022/07/11 11:04:48;;;;;;;0.70;0.60;;;25.30;53.90;;;;;;4956691;29;20780;-72
2022/07/11 11:07:37;;;;;;;0.70;0.50;;;25.30;54.40;;;;;;4956999;29;20461;-72
2022/07/11 11:10:07;;;;;;;0.70;0.50;;;25.30;53.80;;;;;;4956617;29;20447;-72
2022/07/11 11:13:19;;;;;;;0.70;0.60;;;25.40;53.50;;;;;;4956051;29;21032;-73
2022/07/11 11:15:48;;;;;;;0.70;0.60;;;25.50;53.10;;;;;;4956297;29;20442;-72
2022/07/11 11:18:37;;;;;;;1.00;0.60;;;25.40;52.60;;;;;;4956238;28;20540;-72
2022/07/11 11:21:14;;;;;;;0.70;0.60;;;25.00;53.60;;;;;;4956117;29;20485;-72
2022/07/11 11:23:44;;;;;;;0.80;0.60;;;25.20;54.20;;;;;;4956131;29;20439;-71
2022/07/11 11:26:14;;;;;;;0.60;0.50;;;25.20;54.40;;;;;;4956137;28;20546;-71
2022/07/11 11:28:56;;;;;;;0.70;0.60;;;25.00;54.60;;;;;;4956079;29;20450;-71
2022/07/11 11:31:23;;;;;;;0.60;0.50;;;24.70;55.40;;;;;;4955965;29;20470;-72
2022/07/11 11:33:50;;;;;;;0.70;0.50;;;24.90;54.60;;;;;;4955956;29;20455;-72
2022/07/11 11:36:17;;;;;;;0.60;0.50;;;25.00;54.50;;;;;;4955922;29;20817;-71
2022/07/11 11:38:47;;;;;;;0.60;0.50;;;24.80;55.60;;;;;;4955515;28;20479;-71
2022/07/11 11:41:15;;;;;;;0.70;0.60;;;24.90;54.60;;;;;;4955827;29;20567;-72
2022/07/11 11:43:45;;;;;;;0.70;0.50;;;25.20;55.20;;;;;;4955776;28;20459;-72
2022/07/11 11:46:13;;;;;;;0.70;0.50;;;25.60;54.90;;;;;;4955769;28;20546;-71
2022/07/11 11:48:45;;;;;;;0.70;0.60;;;25.90;53.00;;;;;;4955721;29;20470;-73
2022/07/11 11:51:13;;;;;;;0.60;0.50;;;26.30;53.30;;;;;;4955715;29;20485;-72
2022/07/11 11:53:42;;;;;;;0.60;0.50;;;26.60;50.90;;;;;;4955818;28;20485;-72
2022/07/11 11:56:17;;;;;;;0.70;0.50;;;26.90;51.10;;;;;;4955366;29;21014;-71
2022/07/11 11:58:45;;;;;;;0.70;0.50;;;27.10;52.40;;;;;;4955799;28;20482;-72
2022/07/11 12:01:12;;;;;;;0.63;0.50;;;27.20;51.40;;;;;;4955376;29;20602;-72
2022/07/11 12:03:48;;;;;;;0.70;0.57;;;27.40;49.50;;;;;;4955513;29;20431;-73
2022/07/11 12:06:14;;;;;;;0.70;0.50;;;27.40;49.20;;;;;;4955544;29;20439;-72
2022/07/11 12:08:41;;;;;;;0.63;0.50;;;27.10;48.80;;;;;;4955517;29;20498;-72
2022/07/11 12:11:13;;;;;;;0.60;0.50;;;26.40;50.70;;;;;;4955366;29;20474;-72
2022/07/11 12:13:41;;;;;;;0.70;0.50;;;26.30;52.30;;;;;;4955457;29;20515;-72
2022/07/11 12:18:57;;;;;;;0.70;0.50;;;26.20;51.80;;;;;;4955481;29;20465;-72
2022/07/11 12:21:24;;;;;;;0.70;0.50;;;25.70;52.40;;;;;;4955244;29;20467;-73
2022/07/11 12:23:51;;;;;;;0.80;0.50;;;25.90;53.00;;;;;;4955307;29;20454;-72
2022/07/11 12:26:17;;;;;;;0.70;0.50;;;26.20;54.00;;;;;;4955362;29;20443;-72
2022/07/11 12:29:05;;;;;;;1.10;0.60;;;26.20;51.60;;;;;;4955331;29;20443;-74
2022/07/11 12:31:42;;;;;;;0.70;0.50;;;26.40;52.20;;;;;;4955238;29;20549;-73
2022/07/11 12:34:42;;;;;;;0.60;0.50;;;26.30;51.80;;;;;;4955129;29;20958;-72
2022/07/11 12:37:10;;;;;;;0.70;0.60;;;26.10;51.80;;;;;;4955333;28;20473;-73
2022/07/11 12:39:39;;;;;;;0.70;0.50;;;25.90;52.20;;;;;;4955148;29;20483;-72
2022/07/11 12:42:23;;;;;;;0.70;0.50;;;25.90;51.80;;;;;;4955300;28;20486;-72
2022/07/11 12:45:07;;;;;;;0.70;0.60;;;25.30;53.40;;;;;;4955453;29;20532;-73
2022/07/11 12:47:34;;;;;;;0.70;0.60;;;25.50;53.80;;;;;;4955245;29;20442;-72
2022/07/11 12:50:11;;;;;;;0.70;0.50;;;25.90;52.80;;;;;;4955172;28;20463;-71
2022/07/11 12:52:38;;;;;;;0.63;0.50;;;25.90;54.10;;;;;;4958992;29;20532;-72
2022/07/11 12:55:07;;;;;;;0.63;0.50;;;26.00;53.70;;;;;;4958933;29;20446;-73
2022/07/11 12:57:34;;;;;;;0.70;0.53;;;25.80;53.20;;;;;;4959208;28;20514;-73
2022/07/11 13:00:16;;;;;;;1.00;0.60;;;25.70;53.20;;;;;;4958502;29;20856;-73
2022/07/11 13:02:49;;;;;;;0.70;0.53;;;25.50;53.50;;;;;;4958592;29;20526;-72
2022/07/11 13:05:16;;;;;;;0.70;0.57;;;25.70;54.20;;;;;;4960001;29;20508;-73
2022/07/11 13:10:50;;;;;;;0.70;0.50;;;25.60;54.40;;;;;;4958565;29;20410;-72
2022/07/11 13:13:15;;;;;;;0.70;0.53;;;25.50;53.80;;;;;;4958400;29;20941;-73
2022/07/11 13:15:43;;;;;;;0.60;0.50;;;25.40;54.10;;;;;;4958644;29;20463;-72
2022/07/11 13:18:10;;;;;;;0.60;0.50;;;25.30;54.20;;;;;;4958790;29;20506;-72
2022/07/11 13:20:37;;;;;;;0.60;0.50;;;25.50;54.90;;;;;;4958423;29;20581;-73
2022/07/11 13:23:04;;;;;;;0.70;0.50;;;25.80;55.10;;;;;;4958753;29;20443;-73
2022/07/11 13:25:32;;;;;;;0.70;0.60;;;26.00;54.60;;;;;;4958888;29;20446;-74
2022/07/11 13:27:59;;;;;;;0.63;0.50;;;26.10;52.90;;;;;;4959095;29;20482;-74
2022/07/11 13:30:29;;;;;;;0.70;0.60;;;26.30;53.00;;;;;;4958182;29;21017;-72
2022/07/11 13:32:58;;;;;;;0.70;0.60;;;26.10;52.80;;;;;;4958244;28;20525;-73
2022/07/11 13:35:24;;;;;;;0.60;0.50;;;25.90;55.00;;;;;;4957892;29;20875;-73
2022/07/11 13:37:52;;;;;;;0.70;0.57;;;26.00;55.40;;;;;;4958653;29;20505;-75
2022/07/11 13:40:22;;;;;;;0.80;0.67;;;26.10;53.80;;;;;;4958799;29;20494;-75
2022/07/11 13:42:49;;;;;;;0.80;0.50;;;26.20;53.50;;;;;;4957899;29;20943;-75
2022/07/11 13:45:17;;;;;;;0.70;0.57;;;26.30;54.20;;;;;;4958127;28;20458;-73
2022/07/11 13:47:44;;;;;;;0.70;0.60;;;26.30;53.20;;;;;;4957542;29;20505;-73
2022/07/11 13:50:12;;;;;;;0.70;0.50;;;26.20;53.50;;;;;;4957834;29;20442;-73
2022/07/11 13:52:39;;;;;;;0.60;0.50;;;26.40;54.30;;;;;;4957710;29;20502;-73
2022/07/11 13:55:06;;;;;;;0.70;0.70;;;26.40;53.20;;;;;;4957774;29;20517;-72
2022/07/11 13:57:34;;;;;;;0.70;0.50;;;26.20;53.50;;;;;;4958031;29;20447;-72
2022/07/11 14:00:02;;;;;;;0.70;0.60;;;25.80;54.20;;;;;;4957645;29;20482;-72
2022/07/11 14:02:30;;;;;;;0.60;0.50;;;25.70;55.30;;;;;;4957241;28;20494;-73
2022/07/11 14:04:57;;;;;;;1.90;0.80;;;25.70;54.20;;;;;;4964514;29;20458;-72
2022/07/11 14:07:26;;;;;;;0.60;0.50;;;25.70;53.90;;;;;;4962471;29;20513;-73
2022/07/11 14:09:53;;;;;;;0.70;0.60;;;25.80;53.90;;;;;;4960460;29;20443;-72
2022/07/11 14:12:20;;;;;;;0.70;0.50;;;26.00;53.90;;;;;;4960569;29;20981;-72
2022/07/11 14:14:47;;;;;;;0.70;0.60;;;26.10;54.30;;;;;;4957750;29;20943;-72
2022/07/11 14:17:13;;;;;;;0.70;0.60;;;26.20;54.10;;;;;;4958037;29;20447;-73
2022/07/11 14:19:40;;;;;;;0.70;0.60;;;26.30;54.20;;;;;;4957566;29;20486;-74
2022/07/11 14:22:07;;;;;;;0.70;0.50;;;26.30;53.20;;;;;;4957115;29;20845;-73
2022/07/11 14:24:36;;;;;;;0.70;0.60;;;26.30;53.70;;;;;;4957290;29;20510;-72
2022/07/11 14:27:04;;;;;;;0.70;0.60;;;26.00;54.70;;;;;;4957289;29;20458;-72
2022/07/11 14:29:31;;;;;;;0.70;0.60;;;25.70;54.20;;;;;;4957329;28;20454;-72
2022/07/11 14:31:58;;;;;;;0.70;0.60;;;25.30;55.10;;;;;;4957441;28;20471;-73
2022/07/11 14:34:25;;;;;;;0.80;0.60;;;25.00;56.30;;;;;;4957218;29;20451;-73
2022/07/11 14:36:52;;;;;;;0.70;0.50;;;25.00;55.70;;;;;;4957061;29;20458;-73
2022/07/11 14:39:19;;;;;;;0.70;0.50;;;24.90;55.60;;;;;;4956891;29;20573;-73
2022/07/11 14:41:47;;;;;;;0.90;0.53;;;25.00;55.60;;;;;;4956827;29;20541;-73
2022/07/11 14:44:14;;;;;;;0.63;0.50;;;25.30;55.50;;;;;;4956841;29;20459;-72
2022/07/11 14:46:41;;;;;;;0.70;0.60;;;25.50;56.20;;;;;;4956832;29;20497;-72
2022/07/11 14:49:08;;;;;;;0.70;0.60;;;25.70;55.90;;;;;;4956526;29;20494;-73
2022/07/11 14:51:35;;;;;;;0.60;0.50;;;25.80;55.20;;;;;;4956651;29;20481;-73
2022/07/11 14:54:02;;;;;;;0.80;0.60;;;26.00;55.60;;;;;;4956777;29;20458;-73
2022/07/11 14:56:28;;;;;;;0.70;0.60;;;26.20;56.10;;;;;;4956875;29;20877;-72
2022/07/11 14:58:56;;;;;;;0.70;0.50;;;26.00;55.30;;;;;;4956345;29;20963;-73
2022/07/11 15:01:23;;;;;;;0.70;0.60;;;25.70;55.40;;;;;;4956419;29;20490;-73
2022/07/11 15:03:50;;;;;;;0.70;0.60;;;25.90;56.30;;;;;;4956501;29;20451;-73
2022/07/11 15:06:17;;;;;;;0.70;0.60;;;26.00;54.90;;;;;;4956470;29;20455;-73
2022/07/11 15:14:28;;;;;;;0.77;0.57;;;26.40;54.50;;;;;;4897278;29;20448;-73
2022/07/11 15:16:55;;;;;;;0.70;0.50;;;26.80;53.50;;;;;;4898713;29;20446;-73
2022/07/11 15:19:22;;;;;;;0.70;0.60;;;27.00;53.20;;;;;;4923172;28;20504;-74
2022/07/11 15:21:48;;;;;;;0.70;0.57;;;27.20;52.80;;;;;;4956386;29;20469;-73
2022/07/11 15:24:15;;;;;;;0.70;0.60;;;27.10;52.50;;;;;;4956241;29;20450;-73
2022/07/11 15:26:41;;;;;;;0.70;0.50;;;26.90;52.70;;;;;;4956122;29;20447;-72
2022/07/11 15:29:09;;;;;;;0.80;0.67;;;27.00;53.10;;;;;;4956097;29;20451;-75
2022/07/11 15:31:37;;;;;;;0.70;0.53;;;27.00;53.60;;;;;;4956304;29;20463;-73
2022/07/11 15:34:03;;;;;;;0.70;0.60;;;27.10;53.80;;;;;;4956052;28;20458;-73
2022/07/11 15:36:30;;;;;;;0.70;0.50;;;27.20;53.20;;;;;;4955922;29;20453;-73
2022/07/11 15:38:57;;;;;;;0.70;0.50;;;27.20;52.40;;;;;;4955946;29;20511;-73
2022/07/11 15:41:23;;;;;;;0.70;0.60;;;27.20;51.90;;;;;;4955680;29;20491;-73
2022/07/11 15:43:51;;;;;;;0.70;0.53;;;27.30;53.60;;;;;;4955515;29;20866;-73
2022/07/11 15:46:17;;;;;;;0.83;0.60;;;27.60;52.40;;;;;;4955689;29;20527;-74
2022/07/11 15:48:46;;;;;;;0.70;0.60;;;27.60;51.60;;;;;;4955669;29;20522;-73
2022/07/11 15:51:12;;;;;;;0.70;0.60;;;27.50;52.00;;;;;;4955668;29;20470;-74
2022/07/11 15:53:39;;;;;;;0.70;0.60;;;27.50;52.10;;;;;;4955719;29;20450;-73
2022/07/11 15:56:06;;;;;;;0.70;0.60;;;27.40;52.10;;;;;;4955691;29;20455;-73
2022/07/11 15:58:33;;;;;;;0.70;0.50;;;27.20;52.60;;;;;;4955365;29;20801;-73
2022/07/11 16:01:00;;;;;;;0.60;0.50;;;26.80;52.90;;;;;;4955451;29;20498;-73
2022/07/11 16:03:28;;;;;;;0.70;0.50;;;26.20;54.00;;;;;;4955506;29;20461;-73
2022/07/11 16:05:56;;;;;;;0.70;0.50;;;26.20;54.20;;;;;;4955470;29;20953;-73
2022/07/11 16:08:23;;;;;;;0.70;0.60;;;26.10;54.70;;;;;;4955437;29;20509;-73
2022/07/11 16:10:50;;;;;;;0.70;0.60;;;26.10;54.70;;;;;;4955363;29;20526;-72
2022/07/11 16:13:16;;;;;;;0.80;0.63;;;25.70;56.00;;;;;;4955445;29;20453;-73
2022/07/11 16:15:44;;;;;;;0.70;0.60;;;25.70;55.30;;;;;;4955325;29;20447;-73
2022/07/11 16:18:12;;;;;;;0.80;0.60;;;25.70;56.30;;;;;;4955360;29;20537;-73
2022/07/11 16:20:39;;;;;;;0.70;0.70;;;25.80;55.90;;;;;;4954927;29;20483;-73